createdAt,value
2018-11-13T00:00:00.850Z,1015.28
2018-11-13T00:01:00.832Z,1015.27
2018-11-13T00:14:27.673Z,1015.18
2018-11-13T00:15:27.544Z,1015.19
2018-11-13T00:16:27.571Z,1015.17
2018-11-13T00:17:27.382Z,1015.16
2018-11-13T00:18:27.389Z,1015.07
2018-11-13T00:19:27.243Z,1015.13
2018-11-13T00:20:27.186Z,1015.12
2018-11-13T00:21:27.051Z,1015.12
2018-11-13T00:22:27.097Z,1015.08
2018-11-13T00:23:26.883Z,1015.02
2018-11-13T00:24:27.960Z,1014.97
2018-11-13T00:25:26.716Z,1014.94
2018-11-13T00:26:26.710Z,1014.92
2018-11-13T00:27:26.614Z,1014.83
2018-11-13T00:28:26.559Z,1014.78
2018-11-13T00:29:26.586Z,1014.72
2018-11-13T00:30:26.322Z,1014.73
2018-11-13T00:31:26.226Z,1014.75
2018-11-13T00:34:08.151Z,1014.67
2018-11-13T00:35:08.129Z,1014.69
2018-11-13T00:36:07.958Z,1014.66
2018-11-13T00:38:50.128Z,1014.66
2018-11-13T00:39:50.202Z,1014.66
2018-11-13T00:40:49.974Z,1014.74
2018-11-13T00:43:32.144Z,1014.74
2018-11-13T00:44:32.089Z,1014.68
2018-11-13T00:45:32.083Z,1014.65
2018-11-13T01:02:30.195Z,1014.88
2018-11-13T01:05:12.173Z,1014.97
2018-11-13T01:06:12.165Z,1014.97
2018-11-13T01:07:11.979Z,1014.96
2018-11-13T01:10:55.324Z,1014.98
2018-11-13T01:11:55.108Z,1015.03
2018-11-13T01:12:54.989Z,1015.07
2018-11-13T01:13:54.886Z,1015.07
2018-11-13T01:14:54.948Z,1015.13
2018-11-13T01:15:54.750Z,1015.15
2018-11-13T01:16:54.759Z,1015.10
2018-11-13T01:17:54.554Z,1015.14
2018-11-13T01:20:36.636Z,1015.19
2018-11-13T01:21:38.605Z,1015.24
2018-11-13T01:22:36.771Z,1015.26
2018-11-13T01:25:18.631Z,1015.17
2018-11-13T01:26:18.624Z,1015.14
2018-11-13T01:27:18.472Z,1015.14
2018-11-13T01:28:19.491Z,1015.16
2018-11-13T01:29:18.307Z,1015.15
2018-11-13T01:30:18.248Z,1015.18
2018-11-13T01:31:18.137Z,1015.25
2018-11-13T01:32:18.183Z,1015.30
2018-11-13T01:33:17.971Z,1015.32
2018-11-13T01:48:58.558Z,1015.50
2018-11-13T01:49:58.516Z,1015.49
2018-11-13T01:50:58.364Z,1015.53
2018-11-13T01:51:58.332Z,1015.50
2018-11-13T01:52:58.220Z,1015.53
2018-11-13T01:55:52.139Z,1015.59
2018-11-13T01:56:52.106Z,1015.65
2018-11-13T01:57:51.999Z,1015.66
2018-11-13T01:58:51.919Z,1015.55
2018-11-13T01:59:51.820Z,1015.54
2018-11-13T02:03:00.256Z,1015.36
2018-11-13T02:04:02.113Z,1015.30
2018-11-13T02:04:59.983Z,1015.33
2018-11-13T02:07:42.141Z,1015.26
2018-11-13T02:08:43.109Z,1015.28
2018-11-13T02:09:41.969Z,1015.32
2018-11-13T02:12:24.157Z,1015.39
2018-11-13T02:13:24.106Z,1015.41
2018-11-13T02:14:23.982Z,1015.41
2018-11-13T02:15:36.237Z,1015.42
2018-11-13T02:16:23.806Z,1015.44
2018-11-13T02:19:17.312Z,1015.51
2018-11-13T02:21:59.145Z,1015.48
2018-11-13T02:24:41.178Z,1015.50
2018-11-13T02:25:41.142Z,1015.54
2018-11-13T02:26:40.986Z,1015.49
2018-11-13T02:27:40.962Z,1015.51
2018-11-13T02:28:40.812Z,1015.52
2018-11-13T02:30:04.863Z,1015.59
2018-11-13T02:30:40.655Z,1015.59
2018-11-13T02:33:22.661Z,1015.45
2018-11-13T02:34:22.682Z,1015.39
2018-11-13T02:35:22.543Z,1015.40
2018-11-13T02:36:22.482Z,1015.45
2018-11-13T02:37:22.322Z,1015.48
2018-11-13T02:38:26.291Z,1015.43
2018-11-13T02:39:22.189Z,1015.37
2018-11-13T02:40:22.135Z,1015.32
2018-11-13T02:41:21.993Z,1015.30
2018-11-13T02:42:22.013Z,1015.31
2018-11-13T02:43:21.828Z,1015.24
2018-11-13T02:48:25.155Z,1015.23
2018-11-13T02:49:25.139Z,1015.16
2018-11-13T02:50:25.001Z,1015.15
2018-11-13T02:51:24.944Z,1015.19
2018-11-13T02:52:24.823Z,1015.25
2018-11-13T02:53:24.860Z,1015.37
2018-11-13T02:54:24.672Z,1015.42
2018-11-13T02:55:24.692Z,1015.50
2018-11-13T02:56:24.490Z,1015.50
2018-11-13T02:57:24.480Z,1015.53
2018-11-13T02:58:24.329Z,1015.52
2018-11-13T03:01:39.179Z,1015.33
2018-11-13T03:02:39.161Z,1015.34
2018-11-13T03:03:38.996Z,1015.38
2018-11-13T03:04:38.958Z,1015.25
2018-11-13T03:05:38.830Z,1015.24
2018-11-13T03:07:02.118Z,1015.29
2018-11-13T03:07:38.666Z,1015.33
2018-11-13T03:08:38.684Z,1015.43
2018-11-13T03:09:38.488Z,1015.39
2018-11-13T03:10:38.529Z,1015.43
2018-11-13T03:11:38.347Z,1015.39
2018-11-13T03:12:54.283Z,1015.39
2018-11-13T03:13:38.251Z,1015.36
2018-11-13T03:16:20.179Z,1015.36
2018-11-13T03:19:02.158Z,1015.44
2018-11-13T03:20:02.107Z,1015.47
2018-11-13T03:21:02.003Z,1015.51
2018-11-13T03:22:02.047Z,1015.49
2018-11-13T03:44:42.351Z,1015.74
2018-11-13T03:45:42.209Z,1015.72
2018-11-13T03:46:42.151Z,1015.68
2018-11-13T03:47:42.044Z,1015.67
2018-11-13T03:48:42.046Z,1015.69
2018-11-13T03:49:41.890Z,1015.67
2018-11-13T03:50:41.837Z,1015.62
2018-11-13T03:51:41.701Z,1015.65
2018-11-13T03:52:41.676Z,1015.66
2018-11-13T03:53:41.549Z,1015.69
2018-11-13T03:54:41.558Z,1015.67
2018-11-13T03:55:41.378Z,1015.66
2018-11-13T03:56:41.369Z,1015.65
2018-11-13T03:57:41.233Z,1015.62
2018-11-13T03:58:41.183Z,1015.67
2018-11-13T03:59:41.030Z,1015.69
2018-11-13T04:00:40.987Z,1015.61
2018-11-13T04:01:40.865Z,1015.61
2018-11-13T04:02:40.828Z,1015.63
2018-11-13T04:03:40.703Z,1015.61
2018-11-13T04:04:40.700Z,1015.65
2018-11-13T04:05:40.534Z,1015.68
2018-11-13T04:06:40.527Z,1015.72
2018-11-13T04:07:40.386Z,1015.75
2018-11-13T04:08:43.839Z,1015.71
2018-11-13T04:09:40.203Z,1015.69
2018-11-13T04:10:40.238Z,1015.73
2018-11-13T04:11:40.045Z,1015.77
2018-11-13T04:14:22.186Z,1015.80
2018-11-13T04:15:22.162Z,1015.83
2018-11-13T04:16:22.007Z,1015.81
2018-11-13T04:17:21.978Z,1015.79
2018-11-13T04:18:21.870Z,1015.78
2018-11-13T04:19:21.794Z,1015.74
2018-11-13T04:20:21.672Z,1015.72
2018-11-13T04:21:21.673Z,1015.67
2018-11-13T04:22:21.512Z,1015.60
2018-11-13T04:23:21.486Z,1015.58
2018-11-13T04:24:21.359Z,1015.63
2018-11-13T04:25:29.281Z,1015.66
2018-11-13T04:26:21.176Z,1015.72
2018-11-13T04:27:21.201Z,1015.66
2018-11-13T04:28:21.016Z,1015.73
2018-11-13T04:29:21.161Z,1015.76
2018-11-13T04:30:20.846Z,1015.79
2018-11-13T04:31:22.775Z,1015.76
2018-11-13T04:32:20.679Z,1015.73
2018-11-13T04:33:20.642Z,1015.62
2018-11-13T04:34:20.535Z,1015.63
2018-11-13T04:35:20.550Z,1015.63
2018-11-13T04:36:20.346Z,1015.68
2018-11-13T04:39:02.194Z,1015.92
2018-11-13T04:40:02.192Z,1015.95
2018-11-13T04:41:02.005Z,1015.91
2018-11-13T04:42:01.959Z,1015.78
2018-11-13T04:43:01.855Z,1015.76
2018-11-13T04:44:06.788Z,1015.83
2018-11-13T04:45:01.704Z,1015.87
2018-11-13T04:46:01.683Z,1015.94
2018-11-13T04:47:01.526Z,1015.94
2018-11-13T04:48:01.493Z,1015.96
2018-11-13T04:49:01.346Z,1015.89
2018-11-13T04:50:05.422Z,1015.86
2018-11-13T04:51:01.204Z,1015.90
2018-11-13T04:52:01.209Z,1015.91
2018-11-13T04:53:01.020Z,1015.92
2018-11-13T04:54:01.020Z,1015.98
2018-11-13T04:55:00.875Z,1016.04
2018-11-13T04:56:08.335Z,1015.98
2018-11-13T04:57:00.680Z,1015.97
2018-11-13T04:58:00.638Z,1016.00
2018-11-13T04:59:00.517Z,1016.02
2018-11-13T05:01:42.707Z,1016.14
2018-11-13T05:04:24.682Z,1016.05
2018-11-13T05:05:24.685Z,1015.99
2018-11-13T05:06:24.524Z,1015.99
2018-11-13T05:07:24.462Z,1016.01
2018-11-13T05:08:24.362Z,1016.02
2018-11-13T05:09:24.379Z,1015.92
2018-11-13T05:10:24.203Z,1015.89
2018-11-13T05:11:24.186Z,1016.03
2018-11-13T05:12:24.028Z,1015.97
2018-11-13T05:13:24.035Z,1016.04
2018-11-13T05:14:23.873Z,1016.15
2018-11-13T05:15:23.799Z,1016.21
2018-11-13T05:16:23.714Z,1016.16
2018-11-13T05:17:23.700Z,1016.17
2018-11-13T05:18:23.528Z,1016.19
2018-11-13T05:19:23.524Z,1016.14
2018-11-13T05:20:23.360Z,1016.18
2018-11-13T05:21:24.376Z,1016.15
2018-11-13T05:22:23.214Z,1016.24
2018-11-13T05:23:23.133Z,1016.26
2018-11-13T05:24:23.024Z,1016.24
2018-11-13T05:27:05.209Z,1016.26
2018-11-13T05:28:05.148Z,1016.29
2018-11-13T05:29:05.038Z,1016.28
2018-11-13T05:30:05.066Z,1016.29
2018-11-13T05:31:04.894Z,1016.32
2018-11-13T05:32:05.824Z,1016.36
2018-11-13T05:33:04.683Z,1016.37
2018-11-13T05:35:46.702Z,1016.38
2018-11-13T05:36:46.688Z,1016.36
2018-11-13T05:37:46.562Z,1016.32
2018-11-13T05:38:46.482Z,1016.29
2018-11-13T05:39:46.353Z,1016.32
2018-11-13T05:40:46.401Z,1016.24
2018-11-13T05:41:46.280Z,1016.27
2018-11-13T05:42:46.196Z,1016.30
2018-11-13T05:43:46.032Z,1016.27
2018-11-13T05:44:46.006Z,1016.25
2018-11-13T05:45:45.863Z,1016.31
2018-11-13T05:46:45.824Z,1016.34
2018-11-13T05:47:50.732Z,1016.39
2018-11-13T05:48:45.726Z,1016.38
2018-11-13T05:49:45.536Z,1016.43
2018-11-13T05:50:45.533Z,1016.48
2018-11-13T05:51:45.364Z,1016.50
2018-11-13T05:52:47.393Z,1016.55
2018-11-13T05:53:45.230Z,1016.53
2018-11-13T05:56:27.202Z,1016.57
2018-11-13T05:57:27.148Z,1016.62
2018-11-13T05:58:27.058Z,1016.62
2018-11-13T05:59:27.066Z,1016.65
2018-11-13T06:00:26.860Z,1016.68
2018-11-13T06:01:26.866Z,1016.70
2018-11-13T06:02:26.695Z,1016.71
2018-11-13T06:03:26.717Z,1016.71
2018-11-13T06:04:26.530Z,1016.75
2018-11-13T06:05:26.488Z,1016.76
2018-11-13T06:06:26.357Z,1016.76
2018-11-13T06:07:26.321Z,1016.74
2018-11-13T06:08:26.298Z,1016.69
2018-11-13T06:09:26.209Z,1016.72
2018-11-13T06:10:26.049Z,1016.78
2018-11-13T06:11:26.020Z,1016.81
2018-11-13T06:12:25.872Z,1016.83
2018-11-13T06:13:27.809Z,1016.83
2018-11-13T06:14:25.700Z,1016.89
2018-11-13T06:15:25.637Z,1016.89
2018-11-13T06:16:25.530Z,1016.90
2018-11-13T06:17:25.549Z,1016.89
2018-11-13T06:18:25.462Z,1016.90
2018-11-13T06:19:32.879Z,1016.87
2018-11-13T06:20:25.215Z,1016.90
2018-11-13T06:21:25.177Z,1016.91
2018-11-13T06:22:25.038Z,1016.90
2018-11-13T06:23:26.037Z,1016.88
2018-11-13T06:24:24.910Z,1016.88
2018-11-13T06:27:06.701Z,1016.81
2018-11-13T06:28:27.602Z,1016.82
2018-11-13T06:29:06.536Z,1016.84
2018-11-13T06:30:06.525Z,1016.86
2018-11-13T06:31:06.369Z,1016.88
2018-11-13T06:34:35.722Z,1016.90
2018-11-13T06:37:17.700Z,1016.95
2018-11-13T06:38:17.712Z,1016.99
2018-11-13T06:39:17.537Z,1016.94
2018-11-13T06:40:17.569Z,1017.00
2018-11-13T06:41:17.377Z,1017.04
2018-11-13T06:43:59.246Z,1017.11
2018-11-13T06:44:59.279Z,1017.16
2018-11-13T06:45:59.047Z,1017.21
2018-11-13T06:46:59.033Z,1017.23
2018-11-13T06:47:58.870Z,1017.25
2018-11-13T06:49:02.866Z,1017.24
2018-11-13T06:49:58.766Z,1017.30
2018-11-13T06:50:58.653Z,1017.33
2018-11-13T06:51:58.548Z,1017.36
2018-11-13T06:52:58.558Z,1017.38
2018-11-13T06:53:58.384Z,1017.42
2018-11-13T06:55:00.451Z,1017.42
2018-11-13T06:55:58.218Z,1017.48
2018-11-13T06:56:58.177Z,1017.50
2018-11-13T06:57:58.056Z,1017.56
2018-11-13T06:58:57.994Z,1017.57
2018-11-13T06:59:57.881Z,1017.58
2018-11-13T07:01:16.875Z,1017.60
2018-11-13T07:01:57.723Z,1017.62
2018-11-13T07:02:57.637Z,1017.64
2018-11-13T07:03:57.607Z,1017.67
2018-11-13T07:04:57.530Z,1017.69
2018-11-13T07:05:57.445Z,1017.68
2018-11-13T07:06:57.293Z,1017.73
2018-11-13T07:07:57.330Z,1017.72
2018-11-13T07:08:57.136Z,1017.76
2018-11-13T07:09:57.145Z,1017.83
2018-11-13T07:10:57.124Z,1017.79
2018-11-13T07:11:58.013Z,1017.81
2018-11-13T07:12:56.802Z,1017.87
2018-11-13T07:13:56.764Z,1017.81
2018-11-13T07:14:56.629Z,1017.82
2018-11-13T07:15:56.602Z,1017.82
2018-11-13T07:16:56.472Z,1017.84
2018-11-13T07:17:58.429Z,1017.88
2018-11-13T07:18:56.311Z,1017.86
2018-11-13T07:21:38.235Z,1017.91
2018-11-13T07:24:20.223Z,1017.99
2018-11-13T07:27:02.319Z,1018.04
2018-11-13T07:29:47.884Z,1018.14
2018-11-13T07:50:00.245Z,1018.19
2018-11-13T07:51:00.219Z,1018.18
2018-11-13T07:52:00.074Z,1018.18
2018-11-13T07:53:00.005Z,1018.20
2018-11-13T07:54:00.012Z,1018.22
2018-11-13T07:55:04.968Z,1018.23
2018-11-13T07:55:59.744Z,1018.25
2018-11-13T07:56:59.725Z,1018.28
2018-11-13T07:57:59.587Z,1018.30
2018-11-13T07:59:01.579Z,1018.27
2018-11-13T07:59:59.426Z,1018.30
2018-11-13T08:01:07.433Z,1018.29
2018-11-13T08:01:59.247Z,1018.22
2018-11-13T08:02:59.253Z,1018.33
2018-11-13T08:03:59.116Z,1018.32
2018-11-13T08:04:59.097Z,1018.29
2018-11-13T08:05:58.908Z,1018.27
2018-11-13T08:08:45.224Z,1018.35
2018-11-13T08:09:45.203Z,1018.31
2018-11-13T08:10:45.069Z,1018.30
2018-11-13T08:11:45.090Z,1018.34
2018-11-13T08:12:45.031Z,1018.33
2018-11-13T08:13:44.961Z,1018.35
2018-11-13T08:14:44.777Z,1018.38
2018-11-13T08:15:44.722Z,1018.34
2018-11-13T08:16:44.557Z,1018.43
2018-11-13T08:17:44.517Z,1018.38
2018-11-13T08:18:44.425Z,1018.41
2018-11-13T08:19:44.422Z,1018.37
2018-11-13T08:20:44.318Z,1018.37
2018-11-13T08:23:26.235Z,1018.38
2018-11-13T08:24:26.222Z,1018.38
2018-11-13T08:25:26.083Z,1018.38
2018-11-13T08:26:26.072Z,1018.42
2018-11-13T08:27:25.900Z,1018.36
2018-11-13T08:30:11.724Z,1018.35
2018-11-13T08:31:11.764Z,1018.37
2018-11-13T08:32:11.572Z,1018.33
2018-11-13T08:33:11.603Z,1018.34
2018-11-13T08:34:11.401Z,1018.37
2018-11-13T08:37:04.762Z,1018.37
2018-11-13T08:38:04.705Z,1018.39
2018-11-13T08:39:04.562Z,1018.43
2018-11-13T08:40:04.524Z,1018.47
2018-11-13T08:41:04.426Z,1018.49
2018-11-13T08:42:04.326Z,1018.52
2018-11-13T08:43:04.256Z,1018.48
2018-11-13T08:44:04.235Z,1018.52
2018-11-13T08:45:04.074Z,1018.56
2018-11-13T08:47:47.239Z,1018.71
2018-11-13T08:48:47.186Z,1018.67
2018-11-13T08:49:47.063Z,1018.76
2018-11-13T08:50:48.061Z,1018.82
2018-11-13T08:51:46.906Z,1018.77
2018-11-13T08:52:51.917Z,1018.72
2018-11-13T08:53:46.747Z,1018.77
2018-11-13T08:58:32.003Z,1018.77
2018-11-13T09:00:56.246Z,1018.84
2018-11-13T09:01:57.233Z,1018.85
2018-11-13T09:02:56.083Z,1018.84
2018-11-13T09:03:56.086Z,1018.85
2018-11-13T09:04:55.948Z,1018.84
2018-11-13T09:05:57.977Z,1018.85
2018-11-13T09:06:55.786Z,1018.91
2018-11-13T09:07:55.747Z,1018.83
2018-11-13T09:08:55.595Z,1018.91
2018-11-13T09:09:55.629Z,1019.02
2018-11-13T09:10:55.428Z,1018.89
2018-11-13T09:13:37.753Z,1019.01
2018-11-13T09:16:19.744Z,1019.07
2018-11-13T09:17:20.728Z,1018.98
2018-11-13T09:18:19.617Z,1019.05
2018-11-13T09:19:19.640Z,1019.07
2018-11-13T09:20:20.268Z,1019.10
2018-11-13T09:21:19.463Z,1019.08
2018-11-13T09:22:19.263Z,1019.09
2018-11-13T09:23:19.301Z,1019.00
2018-11-13T09:24:19.113Z,1018.96
2018-11-13T09:25:19.070Z,1018.96
2018-11-13T09:26:18.934Z,1019.04
2018-11-13T09:27:18.988Z,1019.03
2018-11-13T09:28:18.788Z,1019.05
2018-11-13T09:29:19.765Z,1019.06
2018-11-13T09:30:18.822Z,1019.05
2018-11-13T09:31:18.638Z,1019.05
2018-11-13T09:32:18.527Z,1019.07
2018-11-13T09:33:18.480Z,1019.06
2018-11-13T09:34:18.306Z,1019.04
2018-11-13T09:35:18.398Z,1019.07
2018-11-13T09:36:18.150Z,1019.02
2018-11-13T09:37:18.154Z,1019.02
2018-11-13T09:38:18.032Z,1019.05
2018-11-13T09:39:19.014Z,1019.09
2018-11-13T09:40:17.856Z,1019.12
2018-11-13T09:42:59.754Z,1019.08
2018-11-13T09:43:59.801Z,1019.20
2018-11-13T09:44:59.683Z,1019.12
2018-11-13T09:47:41.834Z,1019.11
2018-11-13T09:48:42.720Z,1019.15
2018-11-13T09:49:41.608Z,1019.24
2018-11-13T09:52:23.750Z,1019.19
2018-11-13T09:53:23.793Z,1019.16
2018-11-13T09:54:23.628Z,1019.16
2018-11-13T09:55:23.615Z,1019.17
2018-11-13T09:56:23.484Z,1019.10
2018-11-13T09:59:09.280Z,1019.13
2018-11-13T10:01:51.500Z,1019.25
2018-11-13T10:04:33.803Z,1019.20
2018-11-13T10:05:33.418Z,1019.31
2018-11-13T10:06:33.106Z,1019.21
2018-11-13T10:07:33.089Z,1019.22
2018-11-13T10:08:32.927Z,1019.24
2018-11-13T10:09:32.933Z,1019.18
2018-11-13T10:10:32.829Z,1019.23
2018-11-13T10:13:14.759Z,1019.30
2018-11-13T10:14:14.823Z,1019.29
2018-11-13T10:15:14.619Z,1019.41
2018-11-13T10:16:15.577Z,1019.23
2018-11-13T10:17:14.478Z,1019.40
2018-11-13T10:20:00.267Z,1019.38
2018-11-13T10:21:00.244Z,1019.40
2018-11-13T10:22:00.105Z,1019.51
2018-11-13T10:24:42.282Z,1019.36
2018-11-13T10:25:42.260Z,1019.49
2018-11-13T10:26:42.119Z,1019.46
2018-11-13T10:27:42.144Z,1019.39
2018-11-13T10:28:41.940Z,1019.43
2018-11-13T10:29:41.960Z,1019.52
2018-11-13T10:30:41.780Z,1019.46
2018-11-13T10:31:42.833Z,1019.50
2018-11-13T10:32:41.621Z,1019.33
2018-11-13T10:33:41.565Z,1019.50
2018-11-13T10:34:41.474Z,1019.45
2018-11-13T10:35:41.465Z,1019.39
2018-11-13T10:36:41.312Z,1019.39
2018-11-13T10:37:43.241Z,1019.31
2018-11-13T10:38:41.144Z,1019.45
2018-11-13T10:39:41.112Z,1019.55
2018-11-13T10:40:41.096Z,1019.45
2018-11-13T10:41:41.949Z,1019.40
2018-11-13T10:42:40.808Z,1019.37
2018-11-13T10:45:22.760Z,1019.52
2018-11-13T10:48:04.787Z,1019.46
2018-11-13T10:49:04.741Z,1019.42
2018-11-13T10:50:04.632Z,1019.53
2018-11-13T10:51:04.619Z,1019.44
2018-11-13T10:52:04.489Z,1019.42
2018-11-13T10:53:04.429Z,1019.36
2018-11-13T11:17:45.907Z,1019.53
2018-11-13T11:18:45.893Z,1019.58
2018-11-13T11:19:45.677Z,1019.52
2018-11-13T11:20:45.542Z,1019.59
2018-11-13T11:21:45.594Z,1019.50
2018-11-13T11:22:45.403Z,1019.62
2018-11-13T11:23:46.481Z,1019.64
2018-11-13T11:24:45.210Z,1019.60
2018-11-13T11:27:27.284Z,1019.75
2018-11-13T11:28:29.249Z,1019.75
2018-11-13T11:29:27.146Z,1019.87
2018-11-13T11:30:27.114Z,1019.75
2018-11-13T11:31:26.967Z,1019.73
2018-11-13T11:32:28.965Z,1019.74
2018-11-13T11:33:26.814Z,1019.81
2018-11-13T11:34:27.788Z,1019.75
2018-11-13T11:35:26.646Z,1019.76
2018-11-13T11:36:26.640Z,1019.67
2018-11-13T11:37:26.504Z,1019.72
2018-11-13T11:40:08.304Z,1019.73
2018-11-13T11:42:50.283Z,1019.81
2018-11-13T11:43:50.234Z,1019.90
2018-11-13T11:44:50.148Z,1019.78
2018-11-13T11:45:50.143Z,1020.00
2018-11-13T11:46:49.958Z,1019.77
2018-11-13T11:47:49.973Z,1019.98
2018-11-13T11:48:49.862Z,1019.95
2018-11-13T11:49:49.814Z,1019.92
2018-11-13T11:50:49.638Z,1019.84
2018-11-13T12:08:30.281Z,1020.27
2018-11-13T12:09:30.175Z,1020.05
2018-11-13T12:10:30.191Z,1020.13
2018-11-13T12:11:30.003Z,1020.00
2018-11-13T12:12:29.957Z,1020.07
2018-11-13T12:13:29.854Z,1020.03
2018-11-13T12:16:11.833Z,1020.14
2018-11-13T12:17:11.769Z,1020.04
2018-11-13T12:18:11.621Z,1020.08
2018-11-13T12:20:53.835Z,1020.10
2018-11-13T12:21:53.771Z,1020.11
2018-11-13T12:22:53.682Z,1020.05
2018-11-13T12:23:55.626Z,1020.13
2018-11-13T12:24:53.503Z,1020.22
2018-11-13T12:25:56.540Z,1020.21
2018-11-13T12:26:53.339Z,1019.99
2018-11-13T12:27:53.320Z,1020.14
2018-11-13T12:28:53.141Z,1020.12
2018-11-13T12:29:53.125Z,1020.17
2018-11-13T12:30:52.992Z,1020.22
2018-11-13T12:32:03.515Z,1020.16
2018-11-13T12:32:52.822Z,1020.15
2018-11-13T12:33:52.840Z,1020.25
2018-11-13T12:34:52.678Z,1020.23
2018-11-13T12:36:26.403Z,1020.20
2018-11-13T12:36:52.503Z,1020.26
2018-11-13T12:37:57.002Z,1020.26
2018-11-13T12:38:52.369Z,1020.26
2018-11-13T12:41:24.434Z,1020.25
2018-11-13T12:41:24.964Z,1020.26
2018-11-13T12:42:26.934Z,1020.26
2018-11-13T12:43:24.815Z,1020.24
2018-11-13T12:44:24.742Z,1020.30
2018-11-13T12:45:24.637Z,1020.40
2018-11-13T12:48:06.825Z,1020.38
2018-11-13T12:49:06.790Z,1020.45
2018-11-13T12:50:06.641Z,1020.40
2018-11-13T12:51:06.668Z,1020.39
2018-11-13T12:52:06.477Z,1020.42
2018-11-13T12:53:08.568Z,1020.38
2018-11-13T12:54:06.339Z,1020.42
2018-11-13T12:55:06.298Z,1020.39
2018-11-13T12:56:06.165Z,1020.46
2018-11-13T12:57:06.094Z,1020.41
2018-11-13T12:58:06.005Z,1020.44
2018-11-13T12:59:20.986Z,1020.42
2018-11-13T13:00:05.834Z,1020.52
2018-11-13T13:02:47.832Z,1020.41
2018-11-13T13:03:47.815Z,1020.42
2018-11-13T13:04:47.670Z,1020.48
2018-11-13T13:05:47.632Z,1020.46
2018-11-13T13:06:47.500Z,1020.51
2018-11-13T13:07:47.433Z,1020.50
2018-11-13T13:08:47.428Z,1020.55
2018-11-13T13:09:47.271Z,1020.52
2018-11-13T13:10:47.166Z,1020.51
2018-11-13T13:13:29.312Z,1020.51
2018-11-13T13:14:30.323Z,1020.53
2018-11-13T13:15:29.188Z,1020.61
2018-11-13T13:16:29.165Z,1020.62
2018-11-13T13:17:28.992Z,1020.49
2018-11-13T13:20:22.341Z,1020.61
2018-11-13T13:21:43.233Z,1020.54
2018-11-13T13:22:22.196Z,1020.54
2018-11-13T13:25:04.331Z,1020.57
2018-11-13T13:26:04.300Z,1020.58
2018-11-13T13:27:04.152Z,1020.60
2018-11-13T13:28:04.156Z,1020.56
2018-11-13T13:29:03.996Z,1020.56
2018-11-13T13:30:08.009Z,1020.58
2018-11-13T13:31:03.848Z,1020.60
2018-11-13T13:32:03.782Z,1020.57
2018-11-13T13:33:03.657Z,1020.58
2018-11-13T13:34:03.699Z,1020.67
2018-11-13T13:35:03.499Z,1020.69
2018-11-13T13:36:11.006Z,1020.71
2018-11-13T13:37:03.342Z,1020.70
2018-11-13T13:38:03.324Z,1020.78
2018-11-13T13:39:03.198Z,1020.79
2018-11-13T13:40:03.134Z,1020.77
2018-11-13T13:41:03.031Z,1020.85
2018-11-13T13:42:03.027Z,1020.77
2018-11-13T13:43:02.848Z,1020.83
2018-11-13T13:44:02.845Z,1020.93
2018-11-13T13:45:02.697Z,1020.82
2018-11-13T13:46:03.710Z,1020.90
2018-11-13T13:47:02.538Z,1020.88
2018-11-13T13:49:48.820Z,1020.97
2018-11-13T13:52:30.849Z,1020.96
2018-11-13T13:53:30.754Z,1020.91
2018-11-13T13:55:55.350Z,1020.98
2018-11-13T13:56:55.284Z,1020.95
2018-11-13T13:57:55.163Z,1020.96
2018-11-13T13:58:55.156Z,1020.91
2018-11-13T13:59:55.341Z,1020.94
2018-11-13T14:02:48.348Z,1021.07
2018-11-13T14:03:48.337Z,1021.05
2018-11-13T14:04:48.171Z,1020.98
2018-11-13T14:05:48.159Z,1020.98
2018-11-13T14:06:48.023Z,1021.00
2018-11-13T14:09:13.385Z,1021.13
2018-11-13T14:10:13.256Z,1021.05
2018-11-13T14:11:13.182Z,1020.99
2018-11-13T14:12:13.219Z,1021.05
2018-11-13T14:13:12.992Z,1021.03
2018-11-13T14:14:12.987Z,1021.11
2018-11-13T14:15:12.902Z,1021.12
2018-11-13T14:17:54.857Z,1021.11
2018-11-13T14:18:56.850Z,1021.07
2018-11-13T14:19:54.676Z,1021.20
2018-11-13T14:20:54.729Z,1021.17
2018-11-13T14:21:54.501Z,1021.26
2018-11-13T14:22:55.466Z,1021.30
2018-11-13T14:23:54.378Z,1021.27
2018-11-13T14:26:36.333Z,1021.16
2018-11-13T14:27:37.392Z,1021.27
2018-11-13T14:28:36.167Z,1021.31
2018-11-13T14:29:36.125Z,1021.27
2018-11-13T14:30:36.007Z,1021.35
2018-11-13T14:31:36.041Z,1021.34
2018-11-13T14:32:35.867Z,1021.32
2018-11-13T14:33:35.851Z,1021.33
2018-11-13T14:34:35.680Z,1021.41
2018-11-13T14:37:17.835Z,1021.47
2018-11-13T14:38:18.823Z,1021.44
2018-11-13T14:41:57.901Z,1021.55
2018-11-13T14:42:57.880Z,1021.50
2018-11-13T14:43:57.677Z,1021.60
2018-11-13T14:44:57.645Z,1021.57
2018-11-13T14:45:57.521Z,1021.65
2018-11-13T14:46:59.503Z,1021.60
2018-11-13T14:47:57.367Z,1021.64
2018-11-13T14:48:59.307Z,1021.68
2018-11-13T14:49:57.182Z,1021.62
2018-11-13T14:50:57.156Z,1021.74
2018-11-13T14:51:57.012Z,1021.81
2018-11-13T14:53:01.476Z,1021.81
2018-11-13T14:53:56.878Z,1021.75
2018-11-13T14:54:56.874Z,1021.77
2018-11-13T14:55:56.707Z,1021.80
2018-11-13T14:56:56.710Z,1021.76
2018-11-13T14:57:56.533Z,1021.76
2018-11-13T14:59:03.963Z,1021.78
2018-11-13T14:59:56.362Z,1021.79
2018-11-13T15:00:56.324Z,1021.79
2018-11-13T15:01:56.205Z,1021.79
2018-11-13T15:02:56.234Z,1021.82
2018-11-13T15:03:56.049Z,1021.81
2018-11-13T15:06:58.864Z,1021.84
2018-11-13T15:07:58.957Z,1021.89
2018-11-13T15:08:59.778Z,1021.86
2018-11-13T15:09:58.658Z,1021.90
2018-11-13T15:10:58.563Z,1021.91
2018-11-13T15:12:02.915Z,1021.92
2018-11-13T15:12:58.353Z,1022.00
2018-11-13T15:13:58.409Z,1022.01
2018-11-13T15:14:58.219Z,1022.06
2018-11-13T15:17:40.368Z,1022.06
2018-11-13T15:19:01.258Z,1022.05
2018-11-13T15:19:40.196Z,1022.10
2018-11-13T15:22:22.392Z,1022.14
2018-11-13T15:25:04.381Z,1022.12
2018-11-13T15:26:06.328Z,1022.17
2018-11-13T15:27:04.271Z,1022.20
2018-11-13T15:28:04.382Z,1022.19
2018-11-13T15:29:04.504Z,1022.21
2018-11-13T15:30:06.138Z,1022.20
2018-11-13T15:31:05.558Z,1022.18
2018-11-13T15:32:03.786Z,1022.22
2018-11-13T15:33:03.689Z,1022.23
2018-11-13T15:34:03.708Z,1022.21
2018-11-13T15:35:03.545Z,1022.25
2018-11-13T15:37:45.346Z,1022.28
2018-11-13T15:46:01.785Z,1022.31
2018-11-13T15:47:01.588Z,1022.36
2018-11-13T15:48:01.574Z,1022.38
2018-11-13T15:49:01.397Z,1022.37
2018-11-13T15:50:01.413Z,1022.44
2018-11-13T15:51:01.227Z,1022.44
2018-11-13T15:52:01.233Z,1022.41
2018-11-13T15:53:01.064Z,1022.48
2018-11-13T15:54:01.070Z,1022.49
2018-11-13T15:55:00.901Z,1022.45
2018-11-13T15:56:00.947Z,1022.49
2018-11-13T15:57:00.753Z,1022.51
2018-11-13T15:58:00.728Z,1022.59
2018-11-13T15:59:00.593Z,1022.56
2018-11-13T16:00:00.510Z,1022.57
2018-11-13T16:01:00.441Z,1022.61
2018-11-13T16:02:00.410Z,1022.62
2018-11-13T16:03:00.253Z,1022.66
2018-11-13T16:05:42.373Z,1022.78
2018-11-13T16:06:42.377Z,1022.77
2018-11-13T16:07:42.187Z,1022.74
2018-11-13T16:08:42.367Z,1022.78
2018-11-13T16:09:42.060Z,1022.83
2018-11-13T16:10:42.085Z,1022.81
2018-11-13T16:11:41.866Z,1022.82
2018-11-13T16:12:41.921Z,1022.82
2018-11-13T16:13:41.697Z,1022.85
2018-11-13T16:14:41.669Z,1022.81
2018-11-13T16:15:41.562Z,1022.83
2018-11-13T16:16:57.573Z,1022.87
2018-11-13T16:17:41.361Z,1022.84
2018-11-13T16:20:23.388Z,1022.91
2018-11-13T16:21:23.429Z,1022.90
2018-11-13T16:22:23.208Z,1022.91
2018-11-13T16:23:23.324Z,1022.95
2018-11-13T16:24:23.039Z,1022.99
2018-11-13T16:27:16.393Z,1023.01
2018-11-13T16:29:58.477Z,1023.03
2018-11-13T16:30:59.404Z,1023.06
2018-11-13T16:35:46.370Z,1023.07
2018-11-13T16:36:47.417Z,1023.06
2018-11-13T16:37:46.261Z,1023.10
2018-11-13T16:38:46.134Z,1023.06
2018-11-13T16:39:46.033Z,1023.07
2018-11-13T16:40:50.964Z,1023.11
2018-11-13T16:41:45.932Z,1023.07
2018-11-13T16:42:45.853Z,1023.09
2018-11-13T16:43:45.725Z,1023.10
2018-11-13T16:44:47.755Z,1023.09
2018-11-13T16:45:45.599Z,1023.19
2018-11-13T16:46:45.515Z,1023.22
2018-11-13T16:47:45.486Z,1023.23
2018-11-13T16:48:45.397Z,1023.26